sensor_id;sensor_type;location;lat;lon;timestamp;P1;durP1;ratioP1;P2;durP2;ratioP2
13685;SDS011;6915;48.296;8.874;2024-03-22T00:02:07;7.90;;;6.93;;
13685;SDS011;6915;48.296;8.874;2024-03-22T00:04:35;8.93;;;7.00;;
13685;SDS011;6915;48.296;8.874;2024-03-22T00:07:01;9.37;;;6.30;;
13685;SDS011;6915;48.296;8.874;2024-03-22T00:09:28;11.27;;;6.57;;
13685;SDS011;6915;48.296;8.874;2024-03-22T00:11:54;11.33;;;7.87;;
13685;SDS011;6915;48.296;8.874;2024-03-22T00:14:21;8.27;;;7.43;;
13685;SDS011;6915;48.296;8.874;2024-03-22T00:16:47;10.97;;;7.50;;
13685;SDS011;6915;48.296;8.874;2024-03-22T00:19:16;8.97;;;6.50;;
13685;SDS011;6915;48.296;8.874;2024-03-22T00:21:42;8.83;;;7.10;;
13685;SDS011;6915;48.296;8.874;2024-03-22T00:24:09;11.00;;;7.30;;
13685;SDS011;6915;48.296;8.874;2024-03-22T00:26:34;7.90;;;6.97;;
13685;SDS011;6915;48.296;8.874;2024-03-22T00:29:01;7.90;;;6.33;;
13685;SDS011;6915;48.296;8.874;2024-03-22T00:31:27;9.67;;;7.33;;
13685;SDS011;6915;48.296;8.874;2024-03-22T00:33:54;7.80;;;7.00;;
13685;SDS011;6915;48.296;8.874;2024-03-22T00:36:21;10.37;;;7.10;;
13685;SDS011;6915;48.296;8.874;2024-03-22T00:38:48;10.77;;;7.87;;
13685;SDS011;6915;48.296;8.874;2024-03-22T00:41:14;10.23;;;7.50;;
13685;SDS011;6915;48.296;8.874;2024-03-22T00:43:41;11.73;;;7.83;;
13685;SDS011;6915;48.296;8.874;2024-03-22T00:46:07;9.87;;;8.00;;
13685;SDS011;6915;48.296;8.874;2024-03-22T00:48:34;12.10;;;8.03;;
13685;SDS011;6915;48.296;8.874;2024-03-22T00:51:00;13.63;;;8.33;;
13685;SDS011;6915;48.296;8.874;2024-03-22T00:53:29;13.07;;;9.20;;
13685;SDS011;6915;48.296;8.874;2024-03-22T00:55:56;9.30;;;8.07;;
13685;SDS011;6915;48.296;8.874;2024-03-22T00:58:24;10.20;;;7.33;;
13685;SDS011;6915;48.296;8.874;2024-03-22T01:00:51;10.47;;;7.87;;
13685;SDS011;6915;48.296;8.874;2024-03-22T01:03:18;8.60;;;7.37;;
13685;SDS011;6915;48.296;8.874;2024-03-22T01:05:44;10.63;;;8.70;;
13685;SDS011;6915;48.296;8.874;2024-03-22T01:08:11;10.87;;;8.53;;
13685;SDS011;6915;48.296;8.874;2024-03-22T01:10:39;9.70;;;8.00;;
13685;SDS011;6915;48.296;8.874;2024-03-22T01:13:07;9.37;;;8.23;;
13685;SDS011;6915;48.296;8.874;2024-03-22T01:15:33;10.77;;;8.30;;
13685;SDS011;6915;48.296;8.874;2024-03-22T01:18:00;9.40;;;7.93;;
13685;SDS011;6915;48.296;8.874;2024-03-22T01:20:26;9.83;;;6.90;;
13685;SDS011;6915;48.296;8.874;2024-03-22T01:22:53;7.60;;;6.73;;
13685;SDS011;6915;48.296;8.874;2024-03-22T01:25:19;7.73;;;6.90;;
13685;SDS011;6915;48.296;8.874;2024-03-22T01:27:47;10.83;;;7.70;;
13685;SDS011;6915;48.296;8.874;2024-03-22T01:30:13;13.87;;;7.90;;
13685;SDS011;6915;48.296;8.874;2024-03-22T01:32:43;10.37;;;7.57;;
13685;SDS011;6915;48.296;8.874;2024-03-22T01:35:09;9.70;;;6.97;;
13685;SDS011;6915;48.296;8.874;2024-03-22T01:37:36;10.77;;;7.80;;
13685;SDS011;6915;48.296;8.874;2024-03-22T01:40:03;11.43;;;8.30;;
13685;SDS011;6915;48.296;8.874;2024-03-22T01:42:29;11.67;;;7.67;;
13685;SDS011;6915;48.296;8.874;2024-03-22T01:44:58;10.13;;;8.30;;
13685;SDS011;6915;48.296;8.874;2024-03-22T01:47:24;12.77;;;8.77;;
13685;SDS011;6915;48.296;8.874;2024-03-22T01:49:53;11.87;;;8.20;;
13685;SDS011;6915;48.296;8.874;2024-03-22T01:52:20;10.33;;;7.80;;
13685;SDS011;6915;48.296;8.874;2024-03-22T01:54:48;12.77;;;8.50;;
13685;SDS011;6915;48.296;8.874;2024-03-22T01:57:14;9.80;;;8.40;;
13685;SDS011;6915;48.296;8.874;2024-03-22T01:59:41;10.30;;;8.00;;
13685;SDS011;6915;48.296;8.874;2024-03-22T02:02:09;9.73;;;7.97;;
13685;SDS011;6915;48.296;8.874;2024-03-22T02:04:37;10.57;;;7.77;;
13685;SDS011;6915;48.296;8.874;2024-03-22T02:07:03;9.07;;;7.77;;
13685;SDS011;6915;48.296;8.874;2024-03-22T02:09:31;9.13;;;8.00;;
13685;SDS011;6915;48.296;8.874;2024-03-22T02:11:56;9.43;;;8.03;;
13685;SDS011;6915;48.296;8.874;2024-03-22T02:14:23;8.70;;;7.03;;
13685;SDS011;6915;48.296;8.874;2024-03-22T02:16:51;9.63;;;7.33;;
13685;SDS011;6915;48.296;8.874;2024-03-22T02:19:18;9.27;;;7.47;;
13685;SDS011;6915;48.296;8.874;2024-03-22T02:21:45;10.53;;;7.43;;
13685;SDS011;6915;48.296;8.874;2024-03-22T02:24:13;8.73;;;6.57;;
13685;SDS011;6915;48.296;8.874;2024-03-22T02:26:40;7.73;;;6.87;;
13685;SDS011;6915;48.296;8.874;2024-03-22T02:29:06;9.87;;;6.70;;
13685;SDS011;6915;48.296;8.874;2024-03-22T02:31:32;8.73;;;6.83;;
13685;SDS011;6915;48.296;8.874;2024-03-22T02:33:58;8.87;;;6.70;;
13685;SDS011;6915;48.296;8.874;2024-03-22T02:36:26;11.13;;;6.90;;
13685;SDS011;6915;48.296;8.874;2024-03-22T02:38:52;8.77;;;6.37;;
13685;SDS011;6915;48.296;8.874;2024-03-22T02:41:20;7.60;;;6.73;;
13685;SDS011;6915;48.296;8.874;2024-03-22T02:43:46;10.03;;;7.40;;
13685;SDS011;6915;48.296;8.874;2024-03-22T02:46:13;9.63;;;7.13;;
13685;SDS011;6915;48.296;8.874;2024-03-22T02:48:39;8.97;;;6.87;;
13685;SDS011;6915;48.296;8.874;2024-03-22T02:51:06;9.87;;;7.30;;
13685;SDS011;6915;48.296;8.874;2024-03-22T02:53:32;8.53;;;6.83;;
13685;SDS011;6915;48.296;8.874;2024-03-22T02:56:02;12.33;;;8.07;;
13685;SDS011;6915;48.296;8.874;2024-03-22T02:58:29;8.43;;;7.40;;
13685;SDS011;6915;48.296;8.874;2024-03-22T03:00:56;13.33;;;8.03;;
13685;SDS011;6915;48.296;8.874;2024-03-22T03:03:22;12.87;;;8.73;;
13685;SDS011;6915;48.296;8.874;2024-03-22T03:05:49;11.23;;;8.70;;
13685;SDS011;6915;48.296;8.874;2024-03-22T03:08:15;13.50;;;7.80;;
13685;SDS011;6915;48.296;8.874;2024-03-22T03:10:42;9.90;;;7.50;;
13685;SDS011;6915;48.296;8.874;2024-03-22T03:13:07;10.07;;;8.00;;
13685;SDS011;6915;48.296;8.874;2024-03-22T03:15:36;12.43;;;7.50;;
13685;SDS011;6915;48.296;8.874;2024-03-22T03:18:02;9.90;;;6.97;;
13685;SDS011;6915;48.296;8.874;2024-03-22T03:20:29;11.73;;;7.50;;
13685;SDS011;6915;48.296;8.874;2024-03-22T03:22:56;8.97;;;7.53;;
13685;SDS011;6915;48.296;8.874;2024-03-22T03:25:24;9.17;;;6.90;;
13685;SDS011;6915;48.296;8.874;2024-03-22T03:27:51;7.97;;;7.17;;
13685;SDS011;6915;48.296;8.874;2024-03-22T03:30:17;9.17;;;7.90;;
13685;SDS011;6915;48.296;8.874;2024-03-22T03:32:46;11.90;;;8.60;;
13685;SDS011;6915;48.296;8.874;2024-03-22T03:35:12;11.00;;;9.07;;
13685;SDS011;6915;48.296;8.874;2024-03-22T03:37:39;13.37;;;9.80;;
13685;SDS011;6915;48.296;8.874;2024-03-22T03:40:05;11.97;;;9.17;;
13685;SDS011;6915;48.296;8.874;2024-03-22T03:42:33;8.87;;;7.53;;
13685;SDS011;6915;48.296;8.874;2024-03-22T03:44:59;11.30;;;7.80;;
13685;SDS011;6915;48.296;8.874;2024-03-22T03:47:26;11.27;;;7.60;;
13685;SDS011;6915;48.296;8.874;2024-03-22T03:49:53;10.17;;;8.37;;
13685;SDS011;6915;48.296;8.874;2024-03-22T03:52:20;10.60;;;8.83;;
13685;SDS011;6915;48.296;8.874;2024-03-22T03:54:46;9.97;;;8.00;;
13685;SDS011;6915;48.296;8.874;2024-03-22T03:57:13;9.97;;;8.07;;
13685;SDS011;6915;48.296;8.874;2024-03-22T03:59:38;12.10;;;8.00;;
13685;SDS011;6915;48.296;8.874;2024-03-22T04:02:05;11.03;;;7.60;;
13685;SDS011;6915;48.296;8.874;2024-03-22T04:04:31;10.50;;;8.40;;
13685;SDS011;6915;48.296;8.874;2024-03-22T04:07:00;11.63;;;8.57;;
13685;SDS011;6915;48.296;8.874;2024-03-22T04:09:26;9.87;;;8.13;;
13685;SDS011;6915;48.296;8.874;2024-03-22T04:11:52;9.30;;;8.30;;
13685;SDS011;6915;48.296;8.874;2024-03-22T04:14:18;11.27;;;8.70;;
13685;SDS011;6915;48.296;8.874;2024-03-22T04:16:45;12.40;;;8.40;;
13685;SDS011;6915;48.296;8.874;2024-03-22T04:19:11;9.63;;;7.53;;
13685;SDS011;6915;48.296;8.874;2024-03-22T04:21:38;13.53;;;9.00;;
13685;SDS011;6915;48.296;8.874;2024-03-22T04:24:05;15.97;;;10.73;;
13685;SDS011;6915;48.296;8.874;2024-03-22T04:26:32;11.23;;;8.50;;
13685;SDS011;6915;48.296;8.874;2024-03-22T04:28:58;28.03;;;15.23;;
13685;SDS011;6915;48.296;8.874;2024-03-22T04:31:25;11.73;;;9.20;;
13685;SDS011;6915;48.296;8.874;2024-03-22T04:33:51;24.87;;;13.40;;
13685;SDS011;6915;48.296;8.874;2024-03-22T04:36:18;11.73;;;9.57;;
13685;SDS011;6915;48.296;8.874;2024-03-22T04:38:44;12.73;;;9.40;;
13685;SDS011;6915;48.296;8.874;2024-03-22T04:41:12;13.70;;;9.50;;
13685;SDS011;6915;48.296;8.874;2024-03-22T04:43:39;13.33;;;9.47;;
13685;SDS011;6915;48.296;8.874;2024-03-22T04:46:05;12.30;;;9.57;;
13685;SDS011;6915;48.296;8.874;2024-03-22T04:48:32;12.00;;;9.30;;
13685;SDS011;6915;48.296;8.874;2024-03-22T04:50:58;10.70;;;9.00;;
13685;SDS011;6915;48.296;8.874;2024-03-22T04:53:25;12.73;;;9.70;;
13685;SDS011;6915;48.296;8.874;2024-03-22T04:55:51;15.60;;;10.07;;
13685;SDS011;6915;48.296;8.874;2024-03-22T04:58:20;13.50;;;9.17;;
13685;SDS011;6915;48.296;8.874;2024-03-22T05:00:47;14.30;;;9.80;;
13685;SDS011;6915;48.296;8.874;2024-03-22T05:03:14;13.83;;;9.83;;
13685;SDS011;6915;48.296;8.874;2024-03-22T05:05:41;14.10;;;9.90;;
13685;SDS011;6915;48.296;8.874;2024-03-22T05:08:08;14.03;;;9.27;;
13685;SDS011;6915;48.296;8.874;2024-03-22T05:10:34;12.97;;;9.30;;
13685;SDS011;6915;48.296;8.874;2024-03-22T05:13:02;11.63;;;9.27;;
13685;SDS011;6915;48.296;8.874;2024-03-22T05:15:29;15.43;;;9.93;;
13685;SDS011;6915;48.296;8.874;2024-03-22T05:17:57;14.27;;;9.37;;
13685;SDS011;6915;48.296;8.874;2024-03-22T13:21:53;1.65;;;1.42;;
13685;SDS011;6915;48.296;8.874;2024-03-22T13:24:20;1.30;;;1.17;;
13685;SDS011;6915;48.296;8.874;2024-03-22T13:26:46;1.50;;;1.10;;
13685;SDS011;6915;48.296;8.874;2024-03-22T13:29:13;1.55;;;1.42;;
13685;SDS011;6915;48.296;8.874;2024-03-22T13:31:39;2.47;;;1.45;;
13685;SDS011;6915;48.296;8.874;2024-03-22T13:34:06;1.65;;;1.48;;
13685;SDS011;6915;48.296;8.874;2024-03-22T13:36:32;2.00;;;1.30;;
13685;SDS011;6915;48.296;8.874;2024-03-22T13:39:03;1.40;;;1.23;;
13685;SDS011;6915;48.296;8.874;2024-03-22T13:41:29;1.27;;;1.23;;
13685;SDS011;6915;48.296;8.874;2024-03-22T13:43:56;4.40;;;1.42;;
13685;SDS011;6915;48.296;8.874;2024-03-22T13:46:22;5.75;;;1.45;;
13685;SDS011;6915;48.296;8.874;2024-03-22T13:48:51;1.67;;;1.20;;
13685;SDS011;6915;48.296;8.874;2024-03-22T13:51:16;3.05;;;1.20;;
13685;SDS011;6915;48.296;8.874;2024-03-22T13:53:43;4.47;;;1.52;;
13685;SDS011;6915;48.296;8.874;2024-03-22T13:56:11;3.22;;;1.30;;
13685;SDS011;6915;48.296;8.874;2024-03-22T13:58:37;1.83;;;1.48;;
13685;SDS011;6915;48.296;8.874;2024-03-22T14:01:03;1.70;;;1.13;;
13685;SDS011;6915;48.296;8.874;2024-03-22T14:03:30;1.40;;;1.20;;
13685;SDS011;6915;48.296;8.874;2024-03-22T14:05:56;1.50;;;1.40;;
13685;SDS011;6915;48.296;8.874;2024-03-22T14:08:23;2.78;;;1.20;;
13685;SDS011;6915;48.296;8.874;2024-03-22T14:10:49;3.55;;;1.20;;
13685;SDS011;6915;48.296;8.874;2024-03-22T14:13:17;2.10;;;1.20;;
13685;SDS011;6915;48.296;8.874;2024-03-22T14:15:43;1.77;;;1.20;;
13685;SDS011;6915;48.296;8.874;2024-03-22T14:18:10;1.65;;;1.30;;
13685;SDS011;6915;48.296;8.874;2024-03-22T14:20:36;1.30;;;1.20;;
13685;SDS011;6915;48.296;8.874;2024-03-22T14:23:03;1.80;;;1.27;;
13685;SDS011;6915;48.296;8.874;2024-03-22T14:25:31;2.05;;;1.30;;
13685;SDS011;6915;48.296;8.874;2024-03-22T14:27:58;1.30;;;1.20;;
13685;SDS011;6915;48.296;8.874;2024-03-22T14:30:25;1.55;;;1.20;;
13685;SDS011;6915;48.296;8.874;2024-03-22T14:32:52;1.75;;;1.30;;
13685;SDS011;6915;48.296;8.874;2024-03-22T14:35:18;1.15;;;1.05;;
13685;SDS011;6915;48.296;8.874;2024-03-22T14:37:46;1.83;;;1.10;;
13685;SDS011;6915;48.296;8.874;2024-03-22T14:40:12;1.65;;;1.00;;
13685;SDS011;6915;48.296;8.874;2024-03-22T14:42:39;2.45;;;1.20;;
13685;SDS011;6915;48.296;8.874;2024-03-22T14:45:05;1.30;;;1.20;;
13685;SDS011;6915;48.296;8.874;2024-03-22T14:47:36;2.17;;;1.05;;
13685;SDS011;6915;48.296;8.874;2024-03-22T14:50:02;2.10;;;0.98;;
13685;SDS011;6915;48.296;8.874;2024-03-22T14:52:29;0.80;;;0.80;;
13685;SDS011;6915;48.296;8.874;2024-03-22T14:54:55;1.60;;;0.80;;
13685;SDS011;6915;48.296;8.874;2024-03-22T14:57:22;0.90;;;0.85;;
13685;SDS011;6915;48.296;8.874;2024-03-22T14:59:48;0.70;;;0.60;;
13685;SDS011;6915;48.296;8.874;2024-03-22T15:02:17;2.15;;;0.77;;
13685;SDS011;6915;48.296;8.874;2024-03-22T15:04:44;1.58;;;0.80;;
13685;SDS011;6915;48.296;8.874;2024-03-22T15:07:11;0.80;;;0.68;;
13685;SDS011;6915;48.296;8.874;2024-03-22T15:09:37;0.70;;;0.70;;
13685;SDS011;6915;48.296;8.874;2024-03-22T15:12:05;1.65;;;0.70;;
13685;SDS011;6915;48.296;8.874;2024-03-22T15:14:31;1.88;;;0.55;;
13685;SDS011;6915;48.296;8.874;2024-03-22T15:16:58;1.33;;;0.80;;
13685;SDS011;6915;48.296;8.874;2024-03-22T15:19:24;1.13;;;0.40;;
13685;SDS011;6915;48.296;8.874;2024-03-22T15:21:52;0.60;;;0.60;;
13685;SDS011;6915;48.296;8.874;2024-03-22T15:24:18;0.93;;;0.93;;
13685;SDS011;6915;48.296;8.874;2024-03-22T15:26:45;0.98;;;0.60;;
13685;SDS011;6915;48.296;8.874;2024-03-22T15:29:11;0.77;;;0.60;;
13685;SDS011;6915;48.296;8.874;2024-03-22T15:31:38;1.33;;;0.70;;
13685;SDS011;6915;48.296;8.874;2024-03-22T15:34:03;1.17;;;0.65;;
13685;SDS011;6915;48.296;8.874;2024-03-22T15:36:31;1.48;;;0.73;;
13685;SDS011;6915;48.296;8.874;2024-03-22T15:38:58;1.52;;;0.85;;
13685;SDS011;6915;48.296;8.874;2024-03-22T15:41:25;1.58;;;0.90;;
13685;SDS011;6915;48.296;8.874;2024-03-22T15:43:51;1.27;;;0.80;;
13685;SDS011;6915;48.296;8.874;2024-03-22T15:46:18;1.02;;;1.00;;
13685;SDS011;6915;48.296;8.874;2024-03-22T15:48:44;0.88;;;0.80;;
13685;SDS011;6915;48.296;8.874;2024-03-22T15:51:11;2.15;;;0.90;;
13685;SDS011;6915;48.296;8.874;2024-03-22T15:53:39;2.88;;;0.90;;
13685;SDS011;6915;48.296;8.874;2024-03-22T15:56:07;2.85;;;1.15;;
13685;SDS011;6915;48.296;8.874;2024-03-22T15:58:33;2.65;;;2.05;;
13685;SDS011;6915;48.296;8.874;2024-03-22T16:01:00;3.25;;;1.63;;
13685;SDS011;6915;48.296;8.874;2024-03-22T16:03:26;2.58;;;1.45;;
13685;SDS011;6915;48.296;8.874;2024-03-22T16:05:53;2.50;;;1.42;;
13685;SDS011;6915;48.296;8.874;2024-03-22T16:08:19;1.40;;;1.30;;
13685;SDS011;6915;48.296;8.874;2024-03-22T16:10:46;4.05;;;3.50;;
13685;SDS011;6915;48.296;8.874;2024-03-22T16:13:13;3.30;;;2.03;;
13685;SDS011;6915;48.296;8.874;2024-03-22T16:15:40;1.60;;;1.42;;
13685;SDS011;6915;48.296;8.874;2024-03-22T16:18:10;2.33;;;1.00;;
13685;SDS011;6915;48.296;8.874;2024-03-22T16:20:37;2.03;;;1.27;;
13685;SDS011;6915;48.296;8.874;2024-03-22T16:23:03;1.88;;;1.40;;
13685;SDS011;6915;48.296;8.874;2024-03-22T16:25:33;1.33;;;1.23;;
13685;SDS011;6915;48.296;8.874;2024-03-22T16:28:00;1.90;;;1.35;;
13685;SDS011;6915;48.296;8.874;2024-03-22T16:30:29;1.50;;;0.85;;
13685;SDS011;6915;48.296;8.874;2024-03-22T16:32:55;2.40;;;1.15;;
13685;SDS011;6915;48.296;8.874;2024-03-22T16:35:22;1.10;;;1.02;;
13685;SDS011;6915;48.296;8.874;2024-03-22T16:37:48;2.00;;;1.20;;
13685;SDS011;6915;48.296;8.874;2024-03-22T16:40:20;1.25;;;1.08;;
13685;SDS011;6915;48.296;8.874;2024-03-22T16:42:46;1.52;;;0.90;;
13685;SDS011;6915;48.296;8.874;2024-03-22T16:45:14;2.45;;;1.20;;
13685;SDS011;6915;48.296;8.874;2024-03-22T16:47:43;1.65;;;1.05;;
13685;SDS011;6915;48.296;8.874;2024-03-22T16:50:10;1.23;;;1.13;;
13685;SDS011;6915;48.296;8.874;2024-03-22T16:52:37;2.15;;;1.38;;
13685;SDS011;6915;48.296;8.874;2024-03-22T16:55:05;3.42;;;1.25;;
13685;SDS011;6915;48.296;8.874;2024-03-22T16:57:33;2.40;;;1.20;;
13685;SDS011;6915;48.296;8.874;2024-03-22T17:00:00;1.48;;;1.38;;
13685;SDS011;6915;48.296;8.874;2024-03-22T17:02:26;2.40;;;0.90;;
13685;SDS011;6915;48.296;8.874;2024-03-22T17:04:54;0.93;;;0.90;;
13685;SDS011;6915;48.296;8.874;2024-03-22T17:07:20;1.95;;;1.05;;
13685;SDS011;6915;48.296;8.874;2024-03-22T17:09:47;3.20;;;1.20;;
13685;SDS011;6915;48.296;8.874;2024-03-22T17:12:14;0.85;;;0.85;;
13685;SDS011;6915;48.296;8.874;2024-03-22T17:14:41;2.13;;;0.90;;
13685;SDS011;6915;48.296;8.874;2024-03-22T17:17:07;2.78;;;1.10;;
13685;SDS011;6915;48.296;8.874;2024-03-22T17:19:34;1.95;;;1.30;;
